Time;durP1;ratioP1;P1;durP2;ratioP2;P2;SDS_P1;SDS_P2;PMS_P1;PMS_P2;Temp;Humidity;BMP_temperature;BMP_pressure;BME280_temperature;BME280_humidity;BME280_pressure;Samples;Min_cycle;Max_cycle;Signal;HPM_P1;HPM_P2
2022/06/08 00:00:37;;;;;;;14.25;4.87;;;21.40;63.40;;;;;;1868107;77;21035;-66
2022/06/08 00:03:09;;;;;;;7.83;4.00;;;21.40;63.70;;;;;;1796377;79;21062;-65
2022/06/08 00:05:38;;;;;;;15.32;5.20;;;21.40;63.90;;;;;;1868317;77;21157;-65
2022/06/08 00:08:07;;;;;;;10.20;4.45;;;21.40;63.70;;;;;;1867910;75;21067;-65
2022/06/08 00:10:37;;;;;;;8.85;4.50;;;21.30;63.80;;;;;;1867997;76;21027;-66
2022/06/08 00:13:07;;;;;;;8.53;4.17;;;21.30;64.20;;;;;;1867939;76;21075;-65
2022/06/08 00:15:36;;;;;;;14.47;6.95;;;21.30;64.40;;;;;;1868061;77;21020;-65
2022/06/08 00:18:06;;;;;;;11.45;4.72;;;21.30;64.70;;;;;;1867947;76;21031;-66
2022/06/08 00:20:35;;;;;;;11.97;4.50;;;21.40;64.70;;;;;;1867952;76;21101;-65
2022/06/08 00:23:05;;;;;;;12.53;6.03;;;21.40;64.70;;;;;;1867927;76;21422;-65
2022/06/08 00:25:34;;;;;;;13.32;7.45;;;21.40;64.50;;;;;;1867935;76;21036;-65
2022/06/08 00:28:04;;;;;;;10.78;4.50;;;21.40;63.90;;;;;;1867896;77;21105;-65
2022/06/08 00:30:33;;;;;;;13.25;5.35;;;21.30;64.00;;;;;;1867978;76;21046;-65
2022/06/08 00:33:02;;;;;;;11.15;5.22;;;21.30;64.20;;;;;;1867893;76;21039;-65
2022/06/08 00:35:32;;;;;;;9.55;4.33;;;21.20;64.40;;;;;;1860072;76;21067;-66
2022/06/08 00:38:01;;;;;;;24.35;5.70;;;21.20;64.70;;;;;;1856367;76;21098;-65
2022/06/08 00:40:42;;;;;;;12.35;5.53;;;21.20;64.80;;;;;;1856391;77;21032;-65
2022/06/08 00:43:11;;;;;;;10.60;4.33;;;21.20;64.70;;;;;;1856104;76;21122;-65
2022/06/08 00:45:40;;;;;;;10.72;5.58;;;21.30;64.70;;;;;;1856376;77;21114;-66
2022/06/08 00:48:10;;;;;;;9.03;4.45;;;21.30;64.70;;;;;;1856283;77;21141;-66
2022/06/08 00:50:50;;;;;;;14.60;4.92;;;21.30;64.50;;;;;;1856158;76;21094;-66
2022/06/08 00:53:22;;;;;;;6.80;4.22;;;21.20;64.50;;;;;;1856261;76;21137;-66
2022/06/08 00:55:51;;;;;;;10.05;4.95;;;21.20;64.80;;;;;;1856047;77;21040;-66
2022/06/08 00:58:23;;;;;;;9.60;4.65;;;21.10;64.70;;;;;;1856290;76;21105;-66
2022/06/08 01:00:54;;;;;;;9.50;5.22;;;21.10;64.60;;;;;;1856230;76;21453;-66
2022/06/08 01:03:23;;;;;;;9.73;4.25;;;21.10;64.80;;;;;;1856398;77;21147;-66
2022/06/08 01:06:03;;;;;;;15.38;5.03;;;21.00;64.90;;;;;;1856332;76;21073;-66
2022/06/08 01:08:38;;;;;;;8.25;4.70;;;21.00;64.80;;;;;;1856146;77;21090;-66
2022/06/08 01:11:10;;;;;;;10.23;4.42;;;20.90;65.10;;;;;;1856278;76;21114;-65
2022/06/08 01:13:42;;;;;;;10.08;5.00;;;20.90;65.40;;;;;;1855133;76;21545;-65
2022/06/08 01:16:14;;;;;;;9.85;4.90;;;20.80;65.10;;;;;;1855766;76;21099;-65
2022/06/08 01:18:43;;;;;;;12.85;4.35;;;20.70;65.50;;;;;;1856253;76;21040;-65
2022/06/08 01:21:24;;;;;;;11.20;4.42;;;20.70;65.70;;;;;;1856107;76;21036;-65
2022/06/08 01:24:03;;;;;;;10.68;5.08;;;20.70;66.20;;;;;;1856369;76;21173;-65
2022/06/08 01:26:48;;;;;;;11.55;4.75;;;20.70;66.60;;;;;;1856158;76;21036;-65
2022/06/08 01:29:25;;;;;;;9.83;5.78;;;20.70;66.10;;;;;;1856145;77;21059;-66
2022/06/08 01:32:06;;;;;;;11.50;5.30;;;20.70;66.10;;;;;;1856148;76;21172;-66
2022/06/08 01:35:03;;;;;;;11.40;5.37;;;20.70;66.50;;;;;;1856293;76;21016;-65
2022/06/08 01:37:50;;;;;;;10.82;5.00;;;20.70;66.60;;;;;;1859090;76;21051;-65
2022/06/08 01:40:30;;;;;;;11.75;5.22;;;20.70;66.50;;;;;;1858136;77;21141;-65
2022/06/08 01:43:08;;;;;;;14.15;5.72;;;20.70;66.70;;;;;;1858604;77;21063;-65
2022/06/08 01:45:46;;;;;;;10.08;4.55;;;20.60;66.40;;;;;;1858706;76;21568;-65
2022/06/08 01:48:36;;;;;;;13.18;5.65;;;20.60;66.40;;;;;;1859021;77;21060;-65
2022/06/08 01:51:24;;;;;;;8.28;5.10;;;20.60;66.50;;;;;;1859148;77;21032;-65
2022/06/08 01:53:56;;;;;;;8.08;4.90;;;20.60;66.40;;;;;;1859298;77;21044;-65
2022/06/08 01:56:40;;;;;;;13.22;5.08;;;20.70;66.70;;;;;;1859106;76;21028;-65
2022/06/08 01:59:30;;;;;;;14.05;5.12;;;20.70;66.90;;;;;;1858497;76;21113;-65
2022/06/08 02:02:10;;;;;;;114.10;14.73;;;20.70;66.80;;;;;;1815341;77;21015;-65
2022/06/08 02:04:45;;;;;;;15.55;6.28;;;20.70;66.60;;;;;;1858749;76;21063;-65
2022/06/08 02:07:29;;;;;;;12.43;4.75;;;20.70;66.70;;;;;;1858911;77;21548;-65
2022/06/08 02:10:10;;;;;;;54.40;9.70;;;20.70;67.00;;;;;;1859011;76;21032;-65
2022/06/08 02:12:42;;;;;;;7.33;4.45;;;20.60;67.00;;;;;;1859334;77;21103;-65
2022/06/08 02:15:17;;;;;;;13.25;5.03;;;20.70;67.20;;;;;;1859174;77;21032;-65
2022/06/08 02:17:51;;;;;;;11.18;4.20;;;20.70;67.30;;;;;;1858712;76;21072;-66
2022/06/08 02:20:32;;;;;;;10.85;4.22;;;20.80;67.70;;;;;;1859396;76;21099;-65
2022/06/08 02:23:13;;;;;;;19.07;5.50;;;20.80;67.80;;;;;;1843725;77;21122;-65
2022/06/08 02:25:45;;;;;;;9.55;3.80;;;20.90;67.50;;;;;;1859241;77;21035;-65
2022/06/08 02:28:39;;;;;;;61.65;10.38;;;20.90;67.50;;;;;;1859244;77;21093;-65
2022/06/08 02:31:14;;;;;;;15.85;4.50;;;21.00;67.40;;;;;;1859324;76;21040;-65
2022/06/08 02:36:39;;;;;;;12.25;5.55;;;21.00;67.10;;;;;;1859294;76;21051;-65
2022/06/08 02:39:23;;;;;;;12.13;4.80;;;21.00;66.70;;;;;;1859185;77;21028;-65
2022/06/08 02:41:55;;;;;;;13.53;4.97;;;21.00;66.40;;;;;;1859412;76;21028;-65
2022/06/08 02:44:27;;;;;;;11.83;5.10;;;21.10;66.10;;;;;;1859288;76;21158;-65
2022/06/08 02:47:05;;;;;;;11.12;4.17;;;21.10;65.70;;;;;;1859297;76;21098;-65
2022/06/08 02:49:37;;;;;;;9.40;4.05;;;21.10;65.80;;;;;;1859457;76;21036;-65
2022/06/08 02:52:22;;;;;;;14.25;3.90;;;21.20;65.60;;;;;;1859329;76;21099;-65
2022/06/08 02:54:54;;;;;;;8.63;3.98;;;21.20;65.00;;;;;;1859026;76;21095;-65
2022/06/08 02:57:44;;;;;;;6.42;3.83;;;21.10;64.30;;;;;;1859259;76;21040;-65
2022/06/08 03:00:19;;;;;;;10.55;4.42;;;21.10;64.70;;;;;;1859285;76;21059;-65
2022/06/08 03:02:57;;;;;;;7.90;4.15;;;21.10;65.00;;;;;;1859358;76;21063;-65
2022/06/08 03:05:30;;;;;;;11.03;4.00;;;21.10;64.70;;;;;;1859423;76;21032;-65
2022/06/08 03:08:09;;;;;;;8.70;3.98;;;21.20;64.70;;;;;;1859131;76;21110;-65
2022/06/08 03:10:41;;;;;;;12.23;4.10;;;21.20;64.60;;;;;;1859389;76;21086;-65
2022/06/08 03:13:19;;;;;;;9.93;3.90;;;21.30;64.90;;;;;;1859424;77;21084;-65
2022/06/08 03:15:54;;;;;;;10.70;4.58;;;21.40;64.70;;;;;;1859290;76;21122;-65
2022/06/08 03:18:24;;;;;;;14.63;4.78;;;21.50;64.20;;;;;;1859572;77;21126;-65
2022/06/08 03:20:55;;;;;;;7.35;3.40;;;21.50;63.90;;;;;;1859297;76;21110;-65
2022/06/08 03:23:26;;;;;;;9.85;4.47;;;21.50;64.70;;;;;;1859249;77;21088;-65
2022/06/08 03:25:55;;;;;;;10.53;3.92;;;21.50;63.70;;;;;;1859202;76;21039;-65
2022/06/08 03:31:14;;;;;;;7.30;3.40;;;21.50;64.20;;;;;;1874354;76;21055;-65
2022/06/08 03:33:43;;;;;;;9.73;3.70;;;21.60;63.80;;;;;;1874398;76;21105;-65
2022/06/08 03:36:14;;;;;;;8.40;2.95;;;21.70;64.00;;;;;;1874313;76;21028;-65
2022/06/08 03:38:43;;;;;;;4.22;2.72;;;21.70;63.50;;;;;;1874480;76;21031;-65
2022/06/08 03:41:13;;;;;;;10.20;2.85;;;21.80;63.50;;;;;;1874421;76;21035;-65
2022/06/08 03:43:44;;;;;;;4.25;3.00;;;21.90;63.30;;;;;;1874350;75;21031;-65
2022/06/08 03:46:13;;;;;;;16.77;3.60;;;22.10;63.20;;;;;;1874288;76;21031;-65
2022/06/08 03:48:46;;;;;;;9.50;2.52;;;22.20;62.30;;;;;;1874365;76;21024;-64
2022/06/08 03:51:17;;;;;;;9.88;2.72;;;22.20;61.90;;;;;;1874557;76;21028;-65
2022/06/08 03:53:55;;;;;;;16.27;3.00;;;22.20;61.40;;;;;;1874533;76;21124;-65
2022/06/08 03:56:26;;;;;;;3.92;2.33;;;22.20;61.30;;;;;;1873994;75;21580;-65
2022/06/08 03:58:57;;;;;;;34.78;5.67;;;22.30;61.50;;;;;;1874397;76;21070;-65
2022/06/08 04:01:27;;;;;;;7.92;2.80;;;22.30;61.50;;;;;;1874232;76;21031;-65
2022/06/08 04:03:58;;;;;;;6.45;3.08;;;22.40;61.30;;;;;;1874577;75;21023;-65
2022/06/08 04:06:28;;;;;;;4.25;2.90;;;22.40;60.90;;;;;;1874333;75;21098;-65
2022/06/08 04:08:58;;;;;;;6.30;3.55;;;22.40;60.80;;;;;;1874349;76;21508;-65
2022/06/08 04:11:28;;;;;;;7.75;3.50;;;22.50;60.80;;;;;;1874161;76;21113;-66
2022/06/08 04:14:00;;;;;;;8.38;3.70;;;22.60;60.20;;;;;;1874297;75;21176;-66
2022/06/08 04:16:30;;;;;;;6.87;3.60;;;22.50;59.90;;;;;;1874393;76;21023;-65
2022/06/08 04:19:01;;;;;;;24.30;5.08;;;22.60;60.00;;;;;;1874990;75;21047;-65
2022/06/08 04:21:32;;;;;;;13.53;4.87;;;22.70;60.10;;;;;;1874674;75;21486;-65
2022/06/08 04:24:03;;;;;;;9.38;4.17;;;22.80;59.60;;;;;;1874834;75;21442;-65
2022/06/08 04:26:32;;;;;;;12.18;4.80;;;22.80;59.60;;;;;;1874334;76;21032;-65
2022/06/08 04:29:12;;;;;;;13.53;4.12;;;22.90;59.40;;;;;;1875148;75;21132;-65
2022/06/08 04:31:43;;;;;;;9.75;3.70;;;22.90;59.70;;;;;;1874161;76;21067;-66
2022/06/08 04:34:15;;;;;;;11.08;4.55;;;23.00;59.00;;;;;;1874583;75;21113;-66
2022/06/08 04:36:44;;;;;;;7.55;3.20;;;23.00;58.80;;;;;;1874253;76;21023;-66
2022/06/08 04:39:15;;;;;;;12.13;3.95;;;23.00;59.20;;;;;;1874445;76;21011;-66
2022/06/08 04:41:49;;;;;;;13.50;3.72;;;23.10;59.40;;;;;;1874880;75;21872;-66
2022/06/08 04:44:18;;;;;;;9.93;4.50;;;23.20;59.10;;;;;;1874245;76;21008;-66
2022/06/08 04:46:47;;;;;;;11.15;3.83;;;23.30;58.60;;;;;;1874210;76;21094;-66
2022/06/08 04:49:18;;;;;;;7.12;3.62;;;23.30;58.60;;;;;;1874590;75;21050;-66
2022/06/08 04:51:49;;;;;;;18.77;3.67;;;23.20;58.80;;;;;;1874168;76;21156;-66
2022/06/08 04:54:19;;;;;;;12.60;4.47;;;23.30;58.80;;;;;;1874358;76;21066;-66
2022/06/08 04:56:49;;;;;;;8.18;2.70;;;23.40;58.50;;;;;;1874207;76;21117;-66
2022/06/08 04:59:18;;;;;;;8.25;3.05;;;23.50;58.00;;;;;;1898101;75;21030;-66
2022/06/08 05:01:49;;;;;;;13.90;6.50;;;23.50;57.90;;;;;;1875002;75;21055;-65
2022/06/08 05:04:18;;;;;;;4.28;2.83;;;23.60;57.80;;;;;;1874220;76;21019;-65
2022/06/08 05:06:48;;;;;;;34.05;18.85;;;23.70;57.80;;;;;;1898005;75;21063;-65
2022/06/08 05:09:38;;;;;;;5.67;2.30;;;23.70;57.40;;;;;;1874209;76;21047;-65
2022/06/08 05:12:09;;;;;;;4.95;3.05;;;23.80;57.00;;;;;;1797503;80;21068;-65
2022/06/08 05:14:39;;;;;;;6.17;2.83;;;23.80;56.80;;;;;;1797665;80;21024;-65
2022/06/08 05:17:08;;;;;;;7.85;2.90;;;24.00;56.80;;;;;;1797406;80;21052;-65
2022/06/08 05:19:38;;;;;;;20.55;3.12;;;24.10;56.30;;;;;;1797378;80;21111;-65
2022/06/08 05:22:07;;;;;;;9.70;2.83;;;24.20;56.00;;;;;;1797385;80;21535;-65
2022/06/08 05:24:37;;;;;;;3.33;1.87;;;24.40;55.80;;;;;;1797292;80;21060;-65
2022/06/08 05:27:06;;;;;;;11.48;3.85;;;24.50;54.20;;;;;;1797214;80;21044;-65
2022/06/08 05:29:35;;;;;;;13.68;2.98;;;24.50;54.00;;;;;;1797365;80;21060;-65
2022/06/08 05:32:05;;;;;;;10.00;2.37;;;24.50;53.70;;;;;;1797201;80;21110;-65
2022/06/08 05:34:35;;;;;;;13.22;3.83;;;24.60;54.00;;;;;;1797410;80;21072;-65
2022/06/08 05:37:05;;;;;;;8.95;2.65;;;24.70;53.60;;;;;;1797235;80;21056;-66
2022/06/08 05:39:34;;;;;;;7.22;2.42;;;24.80;53.80;;;;;;1797393;80;21111;-65
2022/06/08 05:42:04;;;;;;;3.67;2.67;;;24.90;53.80;;;;;;1797563;80;21028;-65
2022/06/08 05:44:34;;;;;;;5.80;2.02;;;25.00;53.50;;;;;;1797485;80;21052;-65
2022/06/08 05:47:03;;;;;;;16.85;9.43;;;25.10;52.80;;;;;;1797349;80;21122;-65
2022/06/08 05:49:34;;;;;;;4.03;2.75;;;25.00;52.80;;;;;;1797392;80;21052;-65
2022/06/08 05:52:07;;;;;;;6.15;1.95;;;25.00;53.00;;;;;;1797383;80;21115;-65
2022/06/08 05:54:36;;;;;;;4.08;2.27;;;25.10;52.90;;;;;;1797541;80;21096;-65
2022/06/08 05:57:06;;;;;;;7.80;2.33;;;25.10;52.90;;;;;;1797492;80;21472;-65
2022/06/08 05:59:37;;;;;;;6.60;1.90;;;25.10;52.90;;;;;;1796746;79;21142;-65
2022/06/08 06:02:09;;;;;;;11.60;2.33;;;25.20;53.20;;;;;;1797356;80;21029;-65
2022/06/08 06:04:38;;;;;;;8.15;3.58;;;25.30;53.30;;;;;;1797573;80;21569;-65
2022/06/08 06:07:07;;;;;;;8.93;3.62;;;25.40;53.20;;;;;;1797411;80;21570;-65
2022/06/08 06:09:37;;;;;;;9.28;3.12;;;25.50;52.70;;;;;;1797487;80;21127;-65
2022/06/08 06:12:07;;;;;;;11.97;2.72;;;25.50;52.20;;;;;;1795364;79;21117;-65
2022/06/08 06:14:38;;;;;;;8.13;2.65;;;25.40;52.50;;;;;;1795031;80;21127;-65
2022/06/08 06:17:07;;;;;;;4.92;2.80;;;25.40;52.50;;;;;;1794923;80;21021;-65
2022/06/08 06:19:36;;;;;;;10.03;3.25;;;25.50;52.60;;;;;;1795033;80;21069;-65
2022/06/08 06:22:19;;;;;;;8.50;3.27;;;25.60;52.80;;;;;;1792222;79;21060;-65
2022/06/08 06:24:50;;;;;;;8.43;3.47;;;25.70;52.50;;;;;;1774343;80;21187;-65
2022/06/08 06:27:24;;;;;;;6.87;2.70;;;25.80;52.50;;;;;;1760441;80;21045;-65
2022/06/08 06:30:12;;;;;;;7.17;2.47;;;25.90;52.40;;;;;;1792962;80;21138;-65
2022/06/08 06:32:47;;;;;;;5.22;2.72;;;25.90;52.20;;;;;;1794860;80;21220;-65
2022/06/08 06:35:23;;;;;;;6.17;2.87;;;25.90;52.30;;;;;;1794924;80;21130;-65
2022/06/08 06:37:54;;;;;;;5.62;2.42;;;25.90;52.80;;;;;;1794432;80;21167;-65
2022/06/08 06:40:24;;;;;;;6.65;3.25;;;26.00;52.70;;;;;;1794980;80;21123;-65
2022/06/08 06:42:53;;;;;;;7.83;3.33;;;26.10;52.20;;;;;;1794900;80;21057;-65
2022/06/08 06:45:40;;;;;;;7.58;3.00;;;26.20;52.30;;;;;;1794902;80;21056;-65
2022/06/08 06:48:23;;;;;;;6.33;2.50;;;26.20;52.40;;;;;;1793736;80;21138;-65
2022/06/08 06:50:54;;;;;;;55.50;8.93;;;26.30;52.70;;;;;;1794746;80;21072;-64
2022/06/08 06:53:23;;;;;;;12.43;3.42;;;26.40;52.60;;;;;;1794818;80;21554;-64
2022/06/08 06:55:53;;;;;;;13.62;4.40;;;26.70;52.40;;;;;;1794340;80;21068;-64
2022/06/08 06:58:27;;;;;;;6.53;3.17;;;26.80;52.30;;;;;;1793857;79;21138;-64
2022/06/08 07:00:57;;;;;;;3.22;2.40;;;26.90;51.70;;;;;;1768090;80;21064;-65
2022/06/08 07:03:27;;;;;;;9.90;3.90;;;27.00;51.60;;;;;;1795112;80;21044;-64
2022/06/08 07:05:56;;;;;;;7.50;2.80;;;27.10;51.20;;;;;;1794888;80;21024;-64
2022/06/08 07:08:26;;;;;;;8.20;2.95;;;27.00;51.00;;;;;;1795053;80;21538;-64
2022/06/08 07:13:44;;;;;;;7.08;2.62;;;26.80;51.80;;;;;;1794933;80;21131;-65
2022/06/08 07:16:13;;;;;;;9.13;3.25;;;26.90;51.90;;;;;;1794962;80;21057;-65
2022/06/08 07:18:44;;;;;;;6.28;2.90;;;26.90;51.80;;;;;;1795063;80;21464;-65
2022/06/08 07:21:13;;;;;;;6.12;2.67;;;26.90;51.80;;;;;;1794840;80;21100;-65
2022/06/08 07:23:42;;;;;;;7.65;2.62;;;26.90;51.60;;;;;;1794909;80;21044;-65
2022/06/08 07:26:11;;;;;;;5.58;2.62;;;27.00;52.00;;;;;;1794869;80;21620;-65
2022/06/08 07:28:42;;;;;;;3.17;2.87;;;27.00;51.80;;;;;;1794931;80;21053;-65
2022/06/08 07:31:13;;;;;;;8.05;3.40;;;27.00;52.10;;;;;;1794959;80;21122;-65
2022/06/08 07:33:42;;;;;;;5.78;2.40;;;27.10;51.90;;;;;;1794974;80;21096;-65
2022/06/08 07:36:11;;;;;;;5.53;2.50;;;27.20;51.80;;;;;;1794889;80;21029;-65
2022/06/08 07:38:40;;;;;;;5.55;2.60;;;27.30;51.50;;;;;;1794892;80;21052;-65
2022/06/08 07:41:10;;;;;;;4.22;2.40;;;27.20;51.60;;;;;;1794804;80;21131;-65
2022/06/08 07:43:39;;;;;;;8.88;3.33;;;27.30;51.90;;;;;;1794918;80;21049;-65
2022/06/08 07:46:09;;;;;;;6.83;3.05;;;27.30;51.70;;;;;;1794859;80;21483;-65
2022/06/08 07:51:27;;;;;;;4.87;2.92;;;27.40;51.60;;;;;;1794822;80;21060;-65
2022/06/08 07:53:56;;;;;;;7.00;2.85;;;27.40;51.70;;;;;;1794984;80;21024;-65
2022/06/08 07:56:25;;;;;;;6.87;3.47;;;27.40;51.80;;;;;;1794781;80;21044;-65
2022/06/08 07:58:54;;;;;;;7.35;3.60;;;27.40;51.50;;;;;;1794705;80;21061;-65
2022/06/08 08:01:24;;;;;;;5.35;2.70;;;27.40;51.60;;;;;;1794684;80;21028;-65
2022/06/08 08:03:54;;;;;;;7.72;2.90;;;27.50;51.50;;;;;;1794747;80;21190;-65
2022/06/08 10:54:55;;;;;;;5.72;2.20;;;30.30;42.30;;;;;;1958281;73;26422;-63
2022/06/08 10:57:49;;;;;;;10.72;3.50;;;30.40;43.60;;;;;;1917364;74;21031;-55
2022/06/08 11:00:24;;;;;;;7.10;2.37;;;30.50;42.80;;;;;;1916145;74;21070;-61
2022/06/08 11:03:02;;;;;;;3.75;2.30;;;30.60;42.50;;;;;;1917589;74;21075;-60
2022/06/08 11:05:43;;;;;;;5.62;2.40;;;30.60;42.80;;;;;;1917464;74;21450;-62
2022/06/08 11:08:21;;;;;;;23.02;4.60;;;30.60;42.30;;;;;;1917688;74;21042;-62
2022/06/08 11:11:09;;;;;;;8.30;2.62;;;30.70;42.60;;;;;;1917391;74;20987;-63
2022/06/08 11:13:41;;;;;;;12.05;3.70;;;30.70;42.50;;;;;;1885999;75;21072;-62
2022/06/08 11:16:32;;;;;;;5.40;2.37;;;30.70;42.40;;;;;;1884256;76;21569;-65
2022/06/08 11:19:13;;;;;;;6.35;2.30;;;30.80;42.60;;;;;;1883112;75;21090;-66
2022/06/08 11:22:00;;;;;;;5.17;2.02;;;30.80;42.40;;;;;;1886118;76;21476;-60
2022/06/08 11:24:34;;;;;;;9.35;2.62;;;30.80;42.90;;;;;;1857175;76;21025;-59
2022/06/08 11:27:28;;;;;;;10.13;2.98;;;30.80;42.50;;;;;;1886052;75;21523;-61
2022/06/08 11:30:20;;;;;;;5.00;3.30;;;30.80;42.80;;;;;;1886353;75;21412;-61
2022/06/08 11:32:57;;;;;;;7.58;2.00;;;30.80;42.90;;;;;;1886002;75;21100;-60
2022/06/08 11:35:49;;;;;;;7.10;2.60;;;30.80;42.70;;;;;;1886225;75;21025;-62
2022/06/08 11:38:53;;;;;;;2.95;1.95;;;30.80;42.80;;;;;;1885296;75;21037;-60
2022/06/08 11:41:28;;;;;;;3.70;2.37;;;30.80;42.50;;;;;;1886324;75;21426;-61
2022/06/08 11:43:57;;;;;;;19.92;15.80;;;30.90;42.60;;;;;;1885933;76;21096;-59
2022/06/08 11:46:29;;;;;;;3.62;2.30;;;31.00;42.50;;;;;;1885729;75;21146;-66
2022/06/08 11:48:59;;;;;;;7.28;2.00;;;31.10;42.40;;;;;;1886306;76;21150;-63
2022/06/08 11:51:36;;;;;;;2.77;1.90;;;31.10;41.90;;;;;;1886142;76;21025;-63
2022/06/08 11:54:20;;;;;;;7.30;2.58;;;31.10;41.80;;;;;;1886049;76;21565;-63
2022/06/08 11:57:01;;;;;;;3.55;2.10;;;31.00;41.50;;;;;;1886178;76;21563;-64
2022/06/08 11:59:32;;;;;;;3.30;1.90;;;31.00;42.00;;;;;;1886711;76;21548;-62
2022/06/08 12:04:58;;;;;;;4.95;2.12;;;31.00;42.40;;;;;;1927114;74;21002;-63
2022/06/08 12:07:46;;;;;;;4.10;2.70;;;31.00;42.60;;;;;;1926944;74;21002;-63
2022/06/08 12:10:21;;;;;;;4.05;2.60;;;31.10;42.80;;;;;;1927016;74;21143;-63
2022/06/08 12:12:51;;;;;;;6.17;2.05;;;31.10;42.70;;;;;;1927054;74;21041;-63
2022/06/08 12:15:48;;;;;;;4.58;2.20;;;31.10;42.40;;;;;;1926854;74;21194;-63
2022/06/08 12:18:37;;;;;;;3.15;2.45;;;31.10;42.60;;;;;;1926857;74;21025;-63
2022/06/08 12:21:09;;;;;;;8.18;2.95;;;31.10;42.80;;;;;;1926984;74;21046;-63
2022/06/08 12:23:43;;;;;;;9.55;2.62;;;31.10;42.40;;;;;;1926870;74;21073;-63
2022/06/08 12:26:21;;;;;;;3.77;1.92;;;31.00;42.70;;;;;;1927027;74;21042;-64
2022/06/08 12:28:53;;;;;;;5.17;2.08;;;31.00;42.60;;;;;;1926965;74;21038;-64
2022/06/08 12:31:27;;;;;;;4.20;2.15;;;31.00;42.70;;;;;;1925311;74;21053;-64
2022/06/08 12:33:57;;;;;;;2.90;2.22;;;31.00;42.70;;;;;;1926833;74;21149;-63
2022/06/08 12:36:35;;;;;;;6.22;2.45;;;31.10;42.60;;;;;;1926867;74;21077;-63
2022/06/08 12:39:04;;;;;;;;;;;31.10;42.10;;;;;;1928180;73;21441;-65
2022/06/08 12:41:51;;;;;;;5.97;2.72;;;30.90;42.20;;;;;;1925277;73;20138;-64
2022/06/08 12:44:26;;;;;;;3.47;2.25;;;30.90;42.50;;;;;;1926832;74;21550;-64
2022/06/08 12:47:01;;;;;;;9.50;1.92;;;30.90;42.90;;;;;;1926846;74;21006;-64
2022/06/08 12:49:52;;;;;;;10.18;2.10;;;30.90;43.00;;;;;;1926913;74;20998;-64
2022/06/08 12:52:28;;;;;;;7.22;2.27;;;30.90;42.60;;;;;;1926371;74;21038;-65
2022/06/08 12:54:57;;;;;;;4.70;2.05;;;31.00;42.50;;;;;;1926180;74;21093;-64
2022/06/08 12:57:28;;;;;;;3.33;1.87;;;31.00;42.20;;;;;;1926888;74;21046;-64
2022/06/08 13:00:00;;;;;;;2.62;2.00;;;31.00;42.30;;;;;;1926795;74;21006;-64
2022/06/08 13:02:35;;;;;;;4.58;2.05;;;30.90;42.00;;;;;;1926835;74;21425;-65
2022/06/08 13:05:07;;;;;;;2.72;2.10;;;30.80;42.20;;;;;;1908921;74;21070;-65
2022/06/08 13:07:36;;;;;;;5.42;2.65;;;30.80;41.80;;;;;;1905888;75;21085;-65
2022/06/08 13:10:06;;;;;;;8.53;2.25;;;30.70;42.30;;;;;;1907371;75;21093;-65
2022/06/08 13:12:40;;;;;;;12.23;2.47;;;30.70;42.30;;;;;;1907498;75;21031;-64
2022/06/08 13:15:16;;;;;;;;;;;30.70;42.30;;;;;;1910221;75;21571;-63
2022/06/08 13:17:46;;;;;;;9.35;2.75;;;30.70;41.90;;;;;;1907358;75;20135;-64
2022/06/08 13:20:21;;;;;;;7.15;2.30;;;30.70;42.70;;;;;;1907389;75;21096;-64
2022/06/08 13:22:50;;;;;;;6.25;1.70;;;30.70;42.60;;;;;;1907338;75;21027;-64
2022/06/08 13:25:21;;;;;;;2.37;1.80;;;30.70;42.60;;;;;;1907208;75;21134;-64
2022/06/08 13:27:51;;;;;;;7.72;2.62;;;30.70;42.30;;;;;;1907347;75;21021;-64
2022/06/08 13:30:22;;;;;;;4.80;2.25;;;30.70;42.50;;;;;;1907344;75;22423;-64
2022/06/08 13:32:51;;;;;;;7.95;2.58;;;30.70;42.50;;;;;;1907473;75;21100;-64
2022/06/08 13:35:22;;;;;;;7.12;2.25;;;30.60;42.60;;;;;;1907462;75;21035;-64
2022/06/08 13:37:52;;;;;;;7.75;2.10;;;30.50;42.60;;;;;;1907549;75;21564;-64
2022/06/08 13:40:26;;;;;;;7.00;2.58;;;30.50;43.10;;;;;;1907505;75;21027;-64
2022/06/08 13:42:58;;;;;;;6.45;2.15;;;30.50;42.40;;;;;;1907777;75;21043;-64
2022/06/08 13:45:32;;;;;;;7.50;2.02;;;30.50;42.30;;;;;;1907559;75;21007;-64
2022/06/08 13:48:02;;;;;;;;;;;30.40;42.20;;;;;;1909972;75;21105;-64
2022/06/08 13:50:34;;;;;;;5.65;2.00;;;30.40;42.00;;;;;;1907667;75;20137;-64
2022/06/08 13:53:06;;;;;;;2.98;1.92;;;30.40;42.20;;;;;;1907791;75;21047;-64
2022/06/08 13:55:41;;;;;;;6.45;3.12;;;30.40;42.30;;;;;;1907524;75;21078;-64
2022/06/08 13:58:12;;;;;;;7.90;2.80;;;30.30;42.20;;;;;;1907607;75;21035;-64
2022/06/08 14:00:44;;;;;;;6.65;2.08;;;30.40;42.20;;;;;;1907269;75;21096;-64
2022/06/08 14:03:16;;;;;;;6.22;2.47;;;30.30;42.10;;;;;;1907549;75;21078;-64
2022/06/08 14:14:16;;;;;;;3.10;1.80;;;30.20;42.30;;;;;;1917307;75;21112;-65
2022/06/08 14:16:48;;;;;;;4.33;2.00;;;30.20;42.40;;;;;;1917187;75;21043;-65
2022/06/08 14:19:22;;;;;;;4.00;2.10;;;30.10;42.40;;;;;;1917195;75;21043;-65
2022/06/08 14:21:52;;;;;;;9.50;2.35;;;30.00;42.50;;;;;;1917313;75;21030;-65
2022/06/08 14:24:26;;;;;;;4.87;2.92;;;29.90;42.60;;;;;;1917374;75;21031;-65
2022/06/08 14:26:55;;;;;;;8.30;3.83;;;29.90;42.70;;;;;;1917281;75;21534;-65
2022/06/08 14:29:25;;;;;;;9.83;3.17;;;29.90;42.90;;;;;;1917436;75;21038;-65
2022/06/08 14:31:57;;;;;;;7.10;3.27;;;29.80;43.10;;;;;;1917551;75;21030;-65
2022/06/08 14:34:29;;;;;;;6.40;2.62;;;29.80;43.20;;;;;;1917523;75;21084;-64
2022/06/08 14:37:01;;;;;;;9.83;3.30;;;29.80;43.30;;;;;;1917371;75;21493;-65
2022/06/08 14:39:33;;;;;;;10.00;2.70;;;29.80;43.40;;;;;;1917351;75;21055;-65
2022/06/08 14:42:02;;;;;;;4.83;2.00;;;29.80;43.40;;;;;;1917326;75;21051;-65
2022/06/08 14:44:32;;;;;;;6.25;1.87;;;29.80;43.60;;;;;;1917189;75;21099;-64
2022/06/08 14:47:04;;;;;;;7.05;2.60;;;29.80;43.60;;;;;;1917253;75;21043;-64
2022/06/08 14:49:35;;;;;;;3.22;1.70;;;29.70;43.60;;;;;;1917388;74;21030;-65
2022/06/08 14:52:07;;;;;;;7.72;2.72;;;29.70;43.90;;;;;;1917438;75;21088;-64
2022/06/08 14:54:38;;;;;;;6.30;2.50;;;29.60;43.90;;;;;;1917480;75;21093;-65
2022/06/08 14:57:09;;;;;;;3.77;2.15;;;29.60;44.10;;;;;;1917345;75;21034;-65
2022/06/08 14:59:39;;;;;;;4.25;1.92;;;29.60;44.10;;;;;;1913714;75;21547;-64
2022/06/08 15:02:16;;;;;;;3.67;2.00;;;29.60;43.70;;;;;;1917301;75;21089;-65
2022/06/08 15:04:46;;;;;;;3.70;2.37;;;29.60;43.90;;;;;;1904616;73;21092;-64
2022/06/08 15:07:16;;;;;;;5.03;2.50;;;29.60;43.90;;;;;;1911698;74;21176;-65
2022/06/08 15:09:46;;;;;;;7.83;2.05;;;29.60;43.70;;;;;;1907566;75;21011;-65
2022/06/08 15:12:17;;;;;;;2.75;1.95;;;29.60;43.60;;;;;;1907404;75;21058;-65
2022/06/08 15:14:52;;;;;;;6.75;2.60;;;29.50;43.70;;;;;;1907400;75;21442;-65
2022/06/08 15:17:24;;;;;;;7.33;1.77;;;29.50;44.00;;;;;;1906384;75;21019;-65
2022/06/08 15:19:56;;;;;;;3.17;2.02;;;29.60;43.80;;;;;;1907418;75;21034;-65
2022/06/08 15:22:31;;;;;;;4.50;1.98;;;29.60;44.00;;;;;;1907624;75;21101;-65
2022/06/08 15:25:01;;;;;;;4.10;1.98;;;29.60;44.10;;;;;;1907395;75;21027;-65
2022/06/08 15:27:36;;;;;;;4.45;2.15;;;29.50;43.90;;;;;;1907410;75;21101;-65
2022/06/08 15:30:08;;;;;;;5.58;1.80;;;29.50;44.00;;;;;;1907502;75;21015;-65
2022/06/08 15:32:37;;;;;;;8.85;2.27;;;29.50;43.90;;;;;;1906971;75;21489;-66
2022/06/08 15:35:07;;;;;;;7.97;2.10;;;29.50;43.90;;;;;;1907302;75;21003;-65
2022/06/08 15:37:39;;;;;;;7.22;1.98;;;29.50;44.00;;;;;;1907416;75;21027;-66
2022/06/08 15:40:11;;;;;;;6.70;1.98;;;29.50;43.90;;;;;;1890447;76;21021;-65
2022/06/08 15:42:41;;;;;;;12.35;3.65;;;29.50;44.00;;;;;;1912862;75;21047;-65
2022/06/08 15:45:11;;;;;;;7.12;2.10;;;29.50;44.10;;;;;;1914383;75;21108;-65
2022/06/08 15:47:43;;;;;;;6.28;2.02;;;29.50;44.10;;;;;;1914459;75;21030;-65
2022/06/08 15:50:14;;;;;;;4.55;1.87;;;29.50;44.00;;;;;;1914691;75;21026;-65
2022/06/08 15:52:46;;;;;;;4.53;1.95;;;29.40;44.00;;;;;;1914436;75;21474;-65
2022/06/08 15:55:21;;;;;;;6.97;2.65;;;29.40;44.00;;;;;;1914699;75;21014;-65
2022/06/08 15:57:52;;;;;;;5.55;2.50;;;29.40;44.00;;;;;;1914299;75;21051;-65
2022/06/08 16:00:25;;;;;;;17.60;2.42;;;29.30;44.10;;;;;;1914475;75;21035;-65
2022/06/08 16:02:57;;;;;;;4.42;2.27;;;29.30;44.30;;;;;;1914575;75;21214;-65
2022/06/08 16:05:27;;;;;;;3.42;1.90;;;29.30;44.50;;;;;;1914405;75;21023;-65
2022/06/08 16:07:57;;;;;;;6.17;1.95;;;29.20;44.70;;;;;;1924329;74;21057;-65
2022/06/08 16:10:27;;;;;;;10.32;2.40;;;29.20;44.80;;;;;;1930540;74;21058;-65
2022/06/08 16:12:56;;;;;;;5.72;2.20;;;29.10;45.00;;;;;;1930599;74;21046;-65
2022/06/08 16:15:26;;;;;;;9.08;2.67;;;29.10;45.20;;;;;;1930511;74;21046;-65
2022/06/08 16:17:56;;;;;;;11.95;2.35;;;29.10;45.40;;;;;;1930493;74;21018;-65
2022/06/08 16:20:44;;;;;;;9.90;2.98;;;29.00;45.50;;;;;;1930411;74;21026;-65
2022/06/08 16:23:13;;;;;;;9.15;2.62;;;29.00;45.70;;;;;;1866084;76;21135;-64
2022/06/08 16:25:42;;;;;;;13.28;8.40;;;29.10;45.90;;;;;;1940556;74;21025;-64
2022/06/08 16:28:12;;;;;;;18.55;9.93;;;29.10;46.00;;;;;;1899926;75;21045;-64